createdAt,value
2018-06-30T00:01:18.805Z,94.81
2018-06-30T00:03:52.723Z,94.11
2018-06-30T00:06:27.448Z,93.55
2018-06-30T00:09:01.496Z,95.10
2018-06-30T00:11:35.578Z,94.74
2018-06-30T00:14:09.434Z,94.36
2018-06-30T00:16:43.477Z,94.23
2018-06-30T00:19:17.324Z,93.93
2018-06-30T00:21:51.220Z,93.76
2018-06-30T00:24:25.078Z,93.68
2018-06-30T00:27:04.520Z,93.57
2018-06-30T00:29:38.627Z,93.41
2018-06-30T00:32:12.409Z,93.65
2018-06-30T00:34:46.344Z,93.74
2018-06-30T00:37:20.278Z,93.83
2018-06-30T00:39:54.262Z,94.29
2018-06-30T00:42:28.244Z,94.26
2018-06-30T00:45:02.228Z,93.87
2018-06-30T00:47:36.150Z,94.27
2018-06-30T00:50:09.979Z,94.54
2018-06-30T00:52:43.869Z,94.26
2018-06-30T00:55:17.912Z,94.29
2018-06-30T00:57:51.913Z,94.82
2018-06-30T01:00:25.791Z,94.96
2018-06-30T01:03:00.132Z,94.94
2018-06-30T01:05:34.125Z,94.85
2018-06-30T01:08:08.085Z,94.43
2018-06-30T01:10:42.058Z,94.89
2018-06-30T01:13:16.045Z,94.73
2018-06-30T01:15:50.036Z,93.29
2018-06-30T01:18:24.023Z,94.05
2018-06-30T01:20:57.990Z,94.81
2018-06-30T01:23:31.883Z,94.93
2018-06-30T01:26:06.826Z,93.78
2018-06-30T01:28:40.855Z,93.33
2018-06-30T01:31:14.859Z,94.17
2018-06-30T01:33:48.847Z,94.53
2018-06-30T01:36:22.706Z,95.15
2018-06-30T01:38:56.765Z,94.95
2018-06-30T01:41:30.624Z,95.52
2018-06-30T01:44:04.729Z,94.55
2018-06-30T01:46:38.664Z,95.25
2018-06-30T01:49:12.610Z,95.69
2018-06-30T01:51:46.621Z,95.62
2018-06-30T01:54:20.631Z,96.38
2018-06-30T01:56:54.705Z,95.16
2018-06-30T01:59:28.476Z,95.94
2018-06-30T02:02:02.413Z,95.25
2018-06-30T02:04:36.607Z,96.03
2018-06-30T02:07:10.668Z,96.74
2018-06-30T02:09:44.608Z,96.03
2018-06-30T02:12:18.746Z,95.75
2018-06-30T02:14:52.487Z,95.81
2018-06-30T02:17:26.537Z,96.06
2018-06-30T02:20:00.513Z,96.19
2018-06-30T02:22:34.260Z,95.32
2018-06-30T02:25:08.219Z,95.58
2018-06-30T02:27:42.671Z,95.96
2018-06-30T02:30:16.646Z,96.02
2018-06-30T02:32:50.895Z,95.40
2018-06-30T02:35:24.821Z,95.34
2018-06-30T02:37:58.773Z,96.18
2018-06-30T02:40:32.641Z,95.76
2018-06-30T02:43:06.653Z,96.01
2018-06-30T02:45:40.618Z,96.10
2018-06-30T02:48:14.676Z,95.84
2018-06-30T02:50:48.695Z,96.14
2018-06-30T02:53:22.764Z,94.53
2018-06-30T02:55:56.977Z,95.67
2018-06-30T02:58:31.009Z,95.85
2018-06-30T03:01:04.973Z,95.95
2018-06-30T03:03:38.878Z,95.47
2018-06-30T03:06:13.313Z,96.00
2018-06-30T03:08:47.183Z,95.81
2018-06-30T03:11:20.947Z,95.25
2018-06-30T03:13:55.096Z,95.21
2018-06-30T03:16:29.078Z,96.50
2018-06-30T03:19:03.035Z,96.26
2018-06-30T03:21:36.927Z,95.63
2018-06-30T03:24:10.953Z,96.12
2018-06-30T03:26:44.779Z,93.79
2018-06-30T03:29:18.653Z,94.87
2018-06-30T03:31:52.564Z,94.99
2018-06-30T03:34:26.593Z,95.09
2018-06-30T03:37:00.470Z,93.30
2018-06-30T03:39:34.468Z,94.57
2018-06-30T03:42:08.418Z,94.67
2018-06-30T03:44:42.417Z,95.17
2018-06-30T03:47:16.356Z,94.08
2018-06-30T03:49:50.365Z,93.22
2018-06-30T03:52:24.323Z,94.10
2018-06-30T03:54:58.150Z,93.09
2018-06-30T03:57:32.259Z,92.98
2018-06-30T04:00:07.000Z,93.24
2018-06-30T04:02:40.916Z,93.61
2018-06-30T04:05:14.970Z,92.00
2018-06-30T04:07:48.913Z,92.96
2018-06-30T04:10:22.848Z,92.02
2018-06-30T04:12:56.861Z,92.70
2018-06-30T04:15:30.882Z,92.04
2018-06-30T04:18:04.782Z,92.60
2018-06-30T04:20:38.909Z,91.16
2018-06-30T04:23:12.834Z,93.07
2018-06-30T04:25:46.718Z,92.72
2018-06-30T04:28:20.482Z,90.14
2018-06-30T04:30:55.105Z,89.76
2018-06-30T04:33:28.973Z,88.99
2018-06-30T04:36:03.042Z,86.97
2018-06-30T04:38:36.914Z,86.11
2018-06-30T04:41:11.053Z,86.05
2018-06-30T04:43:44.863Z,85.03
2018-06-30T04:46:24.252Z,85.66
2018-06-30T04:48:58.008Z,85.25
2018-06-30T04:51:32.012Z,85.30
2018-06-30T04:54:06.239Z,84.64
2018-06-30T04:56:40.274Z,86.51
2018-06-30T04:59:14.145Z,84.87
2018-06-30T05:01:48.199Z,84.36
2018-06-30T05:04:22.085Z,83.56
2018-06-30T05:06:55.907Z,82.96
2018-06-30T05:09:29.989Z,83.49
2018-06-30T05:12:04.022Z,82.89
2018-06-30T05:14:37.879Z,82.52
2018-06-30T05:18:36.405Z,82.68
2018-06-30T05:21:10.247Z,82.27
2018-06-30T05:23:44.212Z,82.47
2018-06-30T05:26:18.145Z,82.70
2018-06-30T05:28:52.153Z,82.92
2018-06-30T05:31:26.050Z,83.29
2018-06-30T05:34:00.102Z,84.29
2018-06-30T05:36:34.060Z,82.45
2018-06-30T05:39:08.264Z,79.73
2018-06-30T05:41:42.100Z,79.50
2018-06-30T05:44:16.150Z,77.74
2018-06-30T05:46:50.020Z,78.10
2018-06-30T05:49:24.896Z,76.60
2018-06-30T05:51:59.344Z,76.05
2018-06-30T05:54:33.200Z,75.12
2018-06-30T05:57:07.656Z,73.69
2018-06-30T05:59:41.875Z,71.59
2018-06-30T06:02:16.028Z,72.37
2018-06-30T06:04:50.275Z,73.60
2018-06-30T06:07:24.173Z,72.12
2018-06-30T06:09:58.531Z,70.45
2018-06-30T06:12:32.629Z,72.29
2018-06-30T06:15:06.639Z,72.37
2018-06-30T06:17:40.728Z,71.99
2018-06-30T06:20:15.607Z,72.08
2018-06-30T06:22:49.782Z,73.26
2018-06-30T06:25:24.027Z,72.11
2018-06-30T06:27:58.095Z,72.06
2018-06-30T06:30:32.219Z,71.46
2018-06-30T06:33:06.815Z,69.51
2018-06-30T06:35:40.992Z,70.09
2018-06-30T06:38:15.186Z,71.59
2018-06-30T06:40:49.262Z,72.19
2018-06-30T06:43:23.494Z,71.86
2018-06-30T06:45:57.734Z,70.62
2018-06-30T06:48:31.722Z,71.48
2018-06-30T06:51:06.039Z,71.33
2018-06-30T06:53:39.991Z,71.83
2018-06-30T06:56:14.173Z,72.29
2018-06-30T06:58:48.175Z,72.30
2018-06-30T07:01:22.250Z,72.48
2018-06-30T07:03:56.439Z,71.89
2018-06-30T07:06:30.670Z,72.23
2018-06-30T07:09:07.258Z,69.12
2018-06-30T07:11:41.390Z,67.74
2018-06-30T07:14:15.406Z,68.36
2018-06-30T07:16:49.610Z,67.94
2018-06-30T07:19:23.714Z,67.00
2018-06-30T07:21:57.815Z,65.35
2018-06-30T07:24:31.808Z,65.12
2018-06-30T07:27:06.253Z,66.13
2018-06-30T07:29:40.267Z,65.32
2018-06-30T07:32:14.446Z,64.63
2018-06-30T07:34:48.566Z,64.26
2018-06-30T07:37:22.841Z,65.63
2018-06-30T07:39:56.847Z,65.46
2018-06-30T07:42:30.819Z,65.30
2018-06-30T07:45:05.002Z,64.85
2018-06-30T07:47:38.963Z,65.81
2018-06-30T07:50:13.064Z,65.57
2018-06-30T07:52:47.063Z,63.93
2018-06-30T07:55:20.996Z,62.69
2018-06-30T07:57:55.096Z,60.79
2018-06-30T08:00:30.131Z,62.23
2018-06-30T08:03:04.480Z,61.80
2018-06-30T08:05:38.578Z,62.08
2018-06-30T08:08:12.988Z,61.58
2018-06-30T08:10:47.414Z,61.62
2018-06-30T08:13:21.637Z,61.46
2018-06-30T08:15:55.680Z,62.15
2018-06-30T08:18:29.821Z,61.99
2018-06-30T08:21:03.956Z,61.23
2018-06-30T08:23:38.266Z,61.37
2018-06-30T08:26:12.275Z,62.05
2018-06-30T08:28:46.470Z,61.91
2018-06-30T08:31:20.628Z,61.44
2018-06-30T08:33:54.705Z,60.85
2018-06-30T08:36:28.696Z,60.49
2018-06-30T08:39:03.162Z,61.61
2018-06-30T08:41:37.023Z,62.25
2018-06-30T08:44:11.051Z,62.69
2018-06-30T08:46:46.051Z,63.14
2018-06-30T08:49:20.172Z,61.37
2018-06-30T08:51:54.241Z,62.20
2018-06-30T08:54:28.370Z,62.17
2018-06-30T08:57:02.542Z,62.22
2018-06-30T08:59:40.475Z,62.61
2018-06-30T09:02:14.969Z,61.23
2018-06-30T09:04:49.074Z,60.27
2018-06-30T09:07:23.119Z,60.29
2018-06-30T09:09:57.179Z,59.25
2018-06-30T09:12:31.697Z,58.92
2018-06-30T09:15:06.400Z,59.58
2018-06-30T09:17:40.518Z,58.59
2018-06-30T09:20:14.626Z,58.39
2018-06-30T09:22:48.594Z,58.47
2018-06-30T09:25:23.206Z,58.04
2018-06-30T09:27:57.385Z,57.34
2018-06-30T09:30:31.451Z,58.15
2018-06-30T09:33:05.583Z,57.61
2018-06-30T09:35:39.646Z,57.23
2018-06-30T09:38:14.370Z,58.91
2018-06-30T09:40:49.325Z,59.48
2018-06-30T09:43:23.342Z,58.36
2018-06-30T09:45:57.359Z,59.82
2018-06-30T09:48:31.486Z,58.18
2018-06-30T09:51:05.672Z,58.09
2018-06-30T09:53:39.792Z,58.44
2018-06-30T09:56:13.980Z,57.53
2018-06-30T09:58:48.114Z,59.46
2018-06-30T10:01:22.127Z,58.17
2018-06-30T10:03:55.955Z,57.51
2018-06-30T10:06:30.052Z,58.19
2018-06-30T10:09:07.382Z,58.01
2018-06-30T10:11:41.827Z,58.28
2018-06-30T10:14:16.033Z,58.87
2018-06-30T10:16:51.080Z,58.85
2018-06-30T10:19:25.134Z,59.47
2018-06-30T10:21:59.290Z,58.05
2018-06-30T10:24:33.226Z,58.78
2018-06-30T10:27:07.494Z,58.33
2018-06-30T10:29:41.593Z,55.96
2018-06-30T10:32:16.146Z,55.18
2018-06-30T10:34:50.182Z,55.07
2018-06-30T10:37:24.892Z,54.10
2018-06-30T10:39:58.908Z,53.86
2018-06-30T10:42:33.501Z,56.58
2018-06-30T10:45:07.567Z,55.06
2018-06-30T10:47:41.580Z,55.90
2018-06-30T10:50:15.581Z,56.97
2018-06-30T10:52:49.606Z,56.77
2018-06-30T10:55:23.714Z,56.92
2018-06-30T10:57:58.791Z,56.57
2018-06-30T11:00:33.224Z,56.27
2018-06-30T11:03:07.242Z,57.13
2018-06-30T11:05:41.290Z,56.33
2018-06-30T11:08:15.444Z,56.68
2018-06-30T11:10:49.604Z,57.48
2018-06-30T11:13:23.655Z,58.15
2018-06-30T11:15:57.706Z,56.48
2018-06-30T11:18:31.964Z,56.29
2018-06-30T11:21:05.933Z,55.17
2018-06-30T11:23:39.945Z,57.04
2018-06-30T11:26:14.108Z,56.49
2018-06-30T11:28:48.218Z,57.09
2018-06-30T11:31:22.149Z,56.38
2018-06-30T11:33:56.192Z,57.21
2018-06-30T11:36:30.194Z,58.90
2018-06-30T11:39:07.714Z,59.69
2018-06-30T11:41:42.531Z,59.04
2018-06-30T11:44:16.632Z,58.95
2018-06-30T11:46:50.779Z,59.06
2018-06-30T11:49:18.837Z,59.24
2018-06-30T11:51:46.771Z,59.00
2018-06-30T11:54:14.745Z,59.81
2018-06-30T11:56:42.805Z,58.12
2018-06-30T11:59:10.739Z,58.54
2018-06-30T12:01:38.643Z,58.14
2018-06-30T12:04:06.779Z,57.97
2018-06-30T12:06:34.808Z,57.57
2018-06-30T12:09:03.423Z,57.74
2018-06-30T12:11:31.406Z,57.74
2018-06-30T12:13:59.350Z,57.60
2018-06-30T12:16:27.525Z,57.63
2018-06-30T12:18:55.814Z,57.71
2018-06-30T12:21:23.885Z,57.61
2018-06-30T12:23:51.903Z,59.05
2018-06-30T12:26:19.954Z,58.17
2018-06-30T12:28:47.920Z,57.84
2018-06-30T12:31:15.967Z,57.23
2018-06-30T12:33:44.049Z,57.44
2018-06-30T12:36:12.080Z,56.74
2018-06-30T12:38:40.099Z,57.60
2018-06-30T12:41:08.064Z,55.74
2018-06-30T12:43:36.058Z,54.33
2018-06-30T12:48:31.479Z,53.33
2018-06-30T12:50:59.439Z,52.70
2018-06-30T12:53:27.364Z,54.63
2018-06-30T12:55:55.337Z,55.13
2018-06-30T12:58:23.348Z,53.79
2018-06-30T13:00:51.247Z,54.27
2018-06-30T13:03:19.383Z,54.04
2018-06-30T13:05:47.875Z,53.21
2018-06-30T13:08:15.912Z,51.38
2018-06-30T13:10:43.949Z,51.45
2018-06-30T13:13:12.007Z,50.73
2018-06-30T13:15:39.989Z,50.75
2018-06-30T13:18:08.160Z,52.39
2018-06-30T13:20:36.406Z,50.76
2018-06-30T13:23:04.524Z,51.49
2018-06-30T13:25:32.604Z,52.65
2018-06-30T13:28:00.595Z,50.79
2018-06-30T13:30:28.791Z,50.92
2018-06-30T13:32:57.502Z,49.19
2018-06-30T13:35:25.634Z,50.30
2018-06-30T13:37:53.578Z,49.27
2018-06-30T13:40:21.549Z,50.69
2018-06-30T13:42:49.490Z,51.43
2018-06-30T13:45:17.505Z,53.42
2018-06-30T13:47:45.642Z,53.34
2018-06-30T13:50:13.681Z,54.24
2018-06-30T13:52:41.787Z,55.60
2018-06-30T13:55:10.712Z,54.62
2018-06-30T13:57:38.703Z,54.70
2018-06-30T14:00:07.225Z,54.85
2018-06-30T14:02:35.195Z,53.90
2018-06-30T14:05:03.227Z,51.64
2018-06-30T14:07:31.228Z,50.35
2018-06-30T14:09:59.403Z,49.25
2018-06-30T14:12:28.366Z,48.77
2018-06-30T14:14:56.320Z,48.27
2018-06-30T14:17:24.379Z,50.11
2018-06-30T14:19:52.426Z,50.53
2018-06-30T14:22:20.551Z,51.91
2018-06-30T14:24:48.595Z,53.42
2018-06-30T14:27:16.642Z,54.37
2018-06-30T14:29:44.647Z,55.22
2018-06-30T14:32:12.656Z,57.21
2018-06-30T14:34:40.639Z,57.02
2018-06-30T14:37:08.719Z,56.26
2018-06-30T14:39:36.782Z,55.47
2018-06-30T14:42:04.775Z,56.12
2018-06-30T14:44:32.783Z,55.42
2018-06-30T14:47:00.902Z,54.84
2018-06-30T14:49:28.932Z,54.88
2018-06-30T14:51:56.909Z,55.43
2018-06-30T14:54:24.959Z,53.05
2018-06-30T14:56:53.037Z,49.50
2018-06-30T14:59:21.719Z,47.66
2018-06-30T15:01:49.904Z,48.00
2018-06-30T15:04:17.934Z,46.62
2018-06-30T15:06:45.943Z,44.74
2018-06-30T15:09:15.010Z,44.49
2018-06-30T15:11:44.079Z,42.08
2018-06-30T15:14:12.855Z,42.19
2018-06-30T15:16:40.898Z,41.70
2018-06-30T15:19:09.427Z,40.14
2018-06-30T15:21:37.436Z,39.88
2018-06-30T15:24:06.244Z,39.33
2018-06-30T15:26:39.659Z,39.44
2018-06-30T15:29:07.661Z,37.99
2018-06-30T15:31:35.736Z,37.32
2018-06-30T15:34:03.783Z,39.85
2018-06-30T15:36:31.809Z,38.55
2018-06-30T15:38:59.759Z,35.83
2018-06-30T15:41:27.722Z,36.24
2018-06-30T15:43:55.885Z,37.75
2018-06-30T15:46:23.878Z,43.20
2018-06-30T15:48:51.867Z,45.51
2018-06-30T15:51:19.964Z,47.55
2018-06-30T15:53:47.927Z,49.44
2018-06-30T15:56:15.953Z,50.40
2018-06-30T15:58:43.984Z,50.14
2018-06-30T16:01:12.548Z,50.83
2018-06-30T16:03:40.513Z,51.23
2018-06-30T16:06:08.616Z,51.36
2018-06-30T16:08:36.828Z,52.79
2018-06-30T16:11:04.848Z,52.87
2018-06-30T16:13:35.955Z,53.07
2018-06-30T16:16:03.987Z,53.45
2018-06-30T16:18:32.007Z,53.63
2018-06-30T16:21:00.110Z,53.75
2018-06-30T16:23:28.219Z,54.23
2018-06-30T16:25:57.387Z,53.66
2018-06-30T16:28:25.480Z,54.26
2018-06-30T16:30:53.490Z,54.70
2018-06-30T16:33:21.578Z,54.80
2018-06-30T16:35:49.893Z,55.30
2018-06-30T16:38:18.050Z,55.28
2018-06-30T16:40:46.172Z,55.17
2018-06-30T16:43:14.131Z,55.73
2018-06-30T16:45:42.114Z,56.54
2018-06-30T16:48:10.091Z,57.62
2018-06-30T16:50:38.144Z,58.13
2018-06-30T16:53:06.277Z,58.32
2018-06-30T16:55:34.939Z,58.27
2018-06-30T16:58:02.922Z,57.96
2018-06-30T17:00:30.934Z,57.26
2018-06-30T17:02:59.779Z,57.65
2018-06-30T17:05:41.906Z,57.61
2018-06-30T17:08:12.470Z,58.02
2018-06-30T17:10:40.674Z,58.03
2018-06-30T17:13:08.632Z,58.76
2018-06-30T17:15:37.640Z,58.66
2018-06-30T17:18:06.168Z,58.48
2018-06-30T17:20:36.208Z,58.73
2018-06-30T17:23:05.307Z,59.37
2018-06-30T17:25:33.739Z,59.11
2018-06-30T17:28:03.566Z,60.21
2018-06-30T17:30:32.488Z,60.23
2018-06-30T17:33:00.708Z,60.90
2018-06-30T17:35:29.583Z,61.71
2018-06-30T17:37:57.888Z,61.55
2018-06-30T17:40:26.548Z,62.22
2018-06-30T17:42:57.799Z,62.62
2018-06-30T17:45:26.063Z,61.69
2018-06-30T17:47:55.220Z,62.33
2018-06-30T17:50:25.424Z,62.11
2018-06-30T17:52:54.373Z,61.91
2018-06-30T17:55:23.170Z,61.42
2018-06-30T17:57:51.348Z,61.27
2018-06-30T18:00:19.797Z,60.69
2018-06-30T18:02:50.102Z,60.07
2018-06-30T18:05:18.392Z,59.10
2018-06-30T18:07:46.409Z,59.24
2018-06-30T18:10:15.151Z,59.65
2018-06-30T18:12:43.332Z,60.70
2018-06-30T18:15:11.430Z,61.11
2018-06-30T18:17:39.676Z,60.83
2018-06-30T18:20:07.927Z,61.07
2018-06-30T18:22:35.907Z,59.46
2018-06-30T18:25:04.085Z,58.09
2018-06-30T18:27:35.659Z,57.51
2018-06-30T18:30:06.630Z,57.58
2018-06-30T18:32:35.518Z,57.95
2018-06-30T18:35:04.595Z,58.15
2018-06-30T18:37:32.627Z,58.42
2018-06-30T18:40:00.587Z,58.75
2018-06-30T18:42:28.698Z,58.13
2018-06-30T18:44:57.104Z,58.95
2018-06-30T18:47:26.304Z,59.05
2018-06-30T18:49:54.983Z,60.20
2018-06-30T18:52:26.670Z,59.63
2018-06-30T18:54:55.280Z,60.75
2018-06-30T18:57:23.352Z,59.93
2018-06-30T18:59:51.523Z,60.08
2018-06-30T19:02:19.703Z,59.41
2018-06-30T19:04:47.792Z,59.98
2018-06-30T19:07:15.905Z,59.75
2018-06-30T19:09:44.346Z,59.59
2018-06-30T19:12:12.416Z,60.02
2018-06-30T19:14:41.748Z,60.26
2018-06-30T19:17:10.968Z,59.52
2018-06-30T19:19:39.267Z,60.51
2018-06-30T19:22:09.212Z,60.89
2018-06-30T19:24:37.988Z,61.12
2018-06-30T19:27:06.555Z,61.54
2018-06-30T19:29:35.184Z,61.55
2018-06-30T19:32:04.452Z,61.84
2018-06-30T19:34:33.641Z,61.90
2018-06-30T19:37:02.382Z,62.41
2018-06-30T19:39:30.711Z,63.47
2018-06-30T19:41:59.077Z,64.15
2018-06-30T19:44:27.205Z,63.95
2018-06-30T19:46:55.467Z,63.95
2018-06-30T19:49:23.635Z,64.04
2018-06-30T19:51:51.716Z,63.91
2018-06-30T19:54:19.884Z,63.67
2018-06-30T19:56:47.942Z,64.55
2018-06-30T19:59:22.717Z,64.77
2018-06-30T20:01:57.109Z,64.63
2018-06-30T20:04:33.692Z,64.82
2018-06-30T20:07:08.038Z,64.24
2018-06-30T20:09:43.233Z,63.14
2018-06-30T20:12:17.365Z,62.11
2018-06-30T20:14:51.672Z,62.16
2018-06-30T20:17:26.057Z,62.96
2018-06-30T20:20:03.560Z,61.55
2018-06-30T20:22:38.584Z,61.60
2018-06-30T20:25:14.701Z,60.37
2018-06-30T20:27:56.517Z,60.61
2018-06-30T20:30:31.308Z,58.01
2018-06-30T20:33:09.095Z,58.32
2018-06-30T20:35:44.533Z,57.52
2018-06-30T20:38:18.911Z,55.67
2018-06-30T20:40:53.131Z,55.08
2018-06-30T20:43:27.679Z,54.31
2018-06-30T20:46:02.763Z,54.08
2018-06-30T20:48:37.139Z,55.32
2018-06-30T20:51:11.255Z,53.28
2018-06-30T20:53:45.152Z,54.39
2018-06-30T20:56:19.296Z,53.86
2018-06-30T20:58:53.515Z,54.29
2018-06-30T21:01:27.880Z,55.33
2018-06-30T21:04:02.105Z,55.76
2018-06-30T21:06:36.311Z,55.12
2018-06-30T21:09:11.306Z,56.16
2018-06-30T21:11:45.440Z,56.66
2018-06-30T21:14:19.494Z,56.71
2018-06-30T21:16:54.910Z,56.72
2018-06-30T21:19:28.951Z,56.36
2018-06-30T21:22:03.319Z,57.26
2018-06-30T21:24:37.980Z,59.43
2018-06-30T21:27:12.513Z,62.00
2018-06-30T21:29:46.514Z,64.51
2018-06-30T21:32:24.273Z,65.34
2018-06-30T21:34:58.157Z,67.30
2018-06-30T21:37:32.064Z,66.54
2018-06-30T21:40:05.911Z,68.22
2018-06-30T21:42:40.874Z,69.11
2018-06-30T21:45:14.784Z,70.48
2018-06-30T21:47:48.844Z,68.76
2018-06-30T21:50:22.656Z,68.28
2018-06-30T21:52:58.065Z,68.48
2018-06-30T21:55:32.707Z,67.90
2018-06-30T21:58:08.739Z,68.50
2018-06-30T22:00:50.385Z,69.00
2018-06-30T22:04:50.733Z,68.67
2018-06-30T22:07:27.774Z,68.08
2018-06-30T22:10:05.254Z,68.93
2018-06-30T22:12:39.244Z,69.12
2018-06-30T22:15:13.349Z,69.27
2018-06-30T22:17:47.256Z,69.52
2018-06-30T22:20:21.230Z,69.50
2018-06-30T22:22:55.185Z,69.89
2018-06-30T22:25:29.163Z,70.12
2018-06-30T22:28:03.842Z,70.56
2018-06-30T22:30:37.838Z,70.66
2018-06-30T22:33:11.791Z,71.83
2018-06-30T22:35:46.052Z,72.11
2018-06-30T22:38:19.960Z,72.42
2018-06-30T22:40:53.908Z,73.61
2018-06-30T22:43:27.825Z,74.68
2018-06-30T22:46:01.833Z,75.05
2018-06-30T22:48:35.756Z,75.66
2018-06-30T22:51:09.877Z,75.50
2018-06-30T22:53:43.747Z,74.47
2018-06-30T22:56:17.621Z,75.61
2018-06-30T22:58:51.643Z,76.93
2018-06-30T23:01:25.605Z,75.78
2018-06-30T23:03:59.368Z,76.82
2018-06-30T23:06:33.467Z,76.99
2018-06-30T23:09:08.924Z,77.09
2018-06-30T23:11:48.598Z,76.87
2018-06-30T23:14:22.677Z,77.24
2018-06-30T23:16:56.768Z,76.03
2018-06-30T23:19:30.763Z,77.07
2018-06-30T23:22:04.704Z,76.92
2018-06-30T23:24:40.502Z,78.07
2018-06-30T23:27:14.309Z,76.61
2018-06-30T23:29:48.229Z,77.23
2018-06-30T23:32:22.191Z,77.72
2018-06-30T23:34:56.130Z,78.32
2018-06-30T23:37:30.192Z,78.51
2018-06-30T23:40:04.351Z,79.15
2018-06-30T23:42:38.266Z,79.35
2018-06-30T23:45:12.463Z,79.04
2018-06-30T23:47:46.467Z,79.72
2018-06-30T23:50:20.895Z,79.76
2018-06-30T23:52:54.893Z,80.40
2018-06-30T23:55:29.025Z,80.50
2018-06-30T23:58:02.948Z,80.12
